Dan Macmillan — WDB9903 — position and weather

sailwx.info

Track history (hours):
 
Tides and Currents Weather Stations Pressure Air Temp Water Temp Dewpoint Dewpoint Depression Visibility Wind Speed Wind Dir Waves Ship Positions

Dan Macmillan

Owner: American River Transportation Company, St Louis, MO. More information available from US FCC via Universal Licensing System and Coast Guard Vessel Documentation Center.

Last reported at 2017-Dec-16 01:59 UTC. Time now 2017-Dec-17 23:29 UTC.
Position N 31°58' W 091°11'.

Length 63 m; draft 3 m.

Type: Towing. MMSI: 366984870.

Date/timePositionNaut miles runAvg speedWind from/ knotsBaromVisibWave heightAir tempDewpointWater temp
2017-Dec-16 01:59N 31°58' W 091°11'5 6.4
2017-Dec-16 01:10N 31°60' W 091°06'1 6.7
2017-Dec-16 01:00N 32°00' W 091°05'4 6.9
2017-Dec-16 00:23N 32°05' W 091°04'3 7.3
2017-Dec-16 00:00N 32°07' W 091°06'2 4.7
2017-Dec-15 23:30N 32°08' W 091°04'3 5.9
2017-Dec-15 23:00N 32°08' W 091°00'2 4.4
2017-Dec-15 22:30N 32°10' W 091°00'3 6.9
2017-Dec-15 22:00N 32°14' W 090°59'3 6.9
2017-Dec-15 21:30N 32°17' W 090°57'3 6.8
2017-Dec-15 21:00N 32°19' W 090°54'3 5.1
2017-Dec-15 20:30N 32°21' W 090°56'3 6.3
2017-Dec-15 20:00N 32°21' W 090°60'3 6.5
2017-Dec-15 19:30N 32°25' W 090°59'4 7.0
2017-Dec-15 19:00N 32°26' W 091°03'3 5.9
2017-Dec-15 18:30N 32°28' W 091°06'4 6.1
2017-Dec-15 17:54N 32°32' W 091°06'3 7.0
2017-Dec-15 17:30N 32°34' W 091°07'3 6.9
2017-Dec-15 17:00N 32°37' W 091°09'4 6.9
2017-Dec-15 16:27N 32°40' W 091°07'  
Track history (hours):
 
Tides and Currents Weather Stations Pressure Air Temp Water Temp Dewpoint Dewpoint Depression Visibility Wind Speed Wind Dir Waves Ship Positions

Dan Macmillan

Owner: American River Transportation Company, St Louis, MO. More information available from US FCC via Universal Licensing System and Coast Guard Vessel Documentation Center.

Last reported at 2017-Dec-16 01:59 UTC. Time now 2017-Dec-17 23:29 UTC.
Position N 31°58' W 091°11'.

Length 63 m; draft 3 m.

Type: Towing. MMSI: 366984870.

Date/timePositionNaut miles runAvg speedWind from/ knotsBaromVisibWave heightAir tempDewpointWater temp
2017-Dec-16 01:59N 31°58' W 091°11'5 6.4
2017-Dec-16 01:10N 31°60' W 091°06'1 6.7
2017-Dec-16 01:00N 32°00' W 091°05'4 6.9
2017-Dec-16 00:23N 32°05' W 091°04'3 7.3
2017-Dec-16 00:00N 32°07' W 091°06'2 4.7
2017-Dec-15 23:30N 32°08' W 091°04'3 5.9
2017-Dec-15 23:00N 32°08' W 091°00'2 4.4
2017-Dec-15 22:30N 32°10' W 091°00'3 6.9
2017-Dec-15 22:00N 32°14' W 090°59'3 6.9
2017-Dec-15 21:30N 32°17' W 090°57'3 6.8
2017-Dec-15 21:00N 32°19' W 090°54'3 5.1
2017-Dec-15 20:30N 32°21' W 090°56'3 6.3
2017-Dec-15 20:00N 32°21' W 090°60'3 6.5
2017-Dec-15 19:30N 32°25' W 090°59'4 7.0
2017-Dec-15 19:00N 32°26' W 091°03'3 5.9
2017-Dec-15 18:30N 32°28' W 091°06'4 6.1
2017-Dec-15 17:54N 32°32' W 091°06'3 7.0
2017-Dec-15 17:30N 32°34' W 091°07'3 6.9
2017-Dec-15 17:00N 32°37' W 091°09'4 6.9
2017-Dec-15 16:27N 32°40' W 091°07'  

Dump ship's entire track history